sensor_id;sensor_type;location;lat;lon;timestamp;P1;durP1;ratioP1;P2;durP2;ratioP2
76284;SDS011;71676;50.998;7.098;2024-03-02T00:00:14;3.95;;;1.80;;
76284;SDS011;71676;50.998;7.098;2024-03-02T00:02:41;3.88;;;1.67;;
76284;SDS011;71676;50.998;7.098;2024-03-02T00:05:09;4.45;;;1.60;;
76284;SDS011;71676;50.998;7.098;2024-03-02T00:07:38;5.32;;;2.20;;
76284;SDS011;71676;50.998;7.098;2024-03-02T00:10:09;3.85;;;1.50;;
76284;SDS011;71676;50.998;7.098;2024-03-02T00:12:37;4.15;;;1.50;;
76284;SDS011;71676;50.998;7.098;2024-03-02T00:15:05;5.55;;;1.60;;
76284;SDS011;71676;50.998;7.098;2024-03-02T00:17:51;4.15;;;1.83;;
76284;SDS011;71676;50.998;7.098;2024-03-02T00:20:20;3.72;;;1.42;;
76284;SDS011;71676;50.998;7.098;2024-03-02T00:22:48;3.58;;;1.70;;
76284;SDS011;71676;50.998;7.098;2024-03-02T00:25:18;3.70;;;1.85;;
76284;SDS011;71676;50.998;7.098;2024-03-02T00:27:47;4.78;;;1.85;;
76284;SDS011;71676;50.998;7.098;2024-03-02T00:30:26;5.18;;;1.60;;
76284;SDS011;71676;50.998;7.098;2024-03-02T00:33:12;3.25;;;1.38;;
76284;SDS011;71676;50.998;7.098;2024-03-02T00:35:39;5.15;;;1.73;;
76284;SDS011;71676;50.998;7.098;2024-03-02T00:38:06;3.72;;;1.27;;
76284;SDS011;71676;50.998;7.098;2024-03-02T00:40:34;1.92;;;0.98;;
76284;SDS011;71676;50.998;7.098;2024-03-02T00:43:01;2.42;;;1.40;;
76284;SDS011;71676;50.998;7.098;2024-03-02T00:45:28;4.13;;;1.33;;
76284;SDS011;71676;50.998;7.098;2024-03-02T00:47:56;2.97;;;1.45;;
76284;SDS011;71676;50.998;7.098;2024-03-02T00:50:22;3.63;;;1.58;;
76284;SDS011;71676;50.998;7.098;2024-03-02T00:52:49;4.10;;;1.45;;
76284;SDS011;71676;50.998;7.098;2024-03-02T00:55:16;3.60;;;1.13;;
76284;SDS011;71676;50.998;7.098;2024-03-02T00:57:44;4.13;;;1.60;;
76284;SDS011;71676;50.998;7.098;2024-03-02T01:00:11;2.40;;;1.20;;
76284;SDS011;71676;50.998;7.098;2024-03-02T01:02:40;2.97;;;1.70;;
76284;SDS011;71676;50.998;7.098;2024-03-02T01:05:07;1.50;;;0.98;;
76284;SDS011;71676;50.998;7.098;2024-03-02T01:07:34;3.70;;;1.70;;
76284;SDS011;71676;50.998;7.098;2024-03-02T01:10:01;5.53;;;1.73;;
76284;SDS011;71676;50.998;7.098;2024-03-02T01:12:28;4.05;;;1.67;;
76284;SDS011;71676;50.998;7.098;2024-03-02T01:14:56;3.63;;;1.42;;
76284;SDS011;71676;50.998;7.098;2024-03-02T01:17:23;4.00;;;1.50;;
76284;SDS011;71676;50.998;7.098;2024-03-02T01:19:49;4.57;;;1.80;;
76284;SDS011;71676;50.998;7.098;2024-03-02T01:22:16;2.72;;;1.30;;
76284;SDS011;71676;50.998;7.098;2024-03-02T01:24:48;3.00;;;1.40;;
76284;SDS011;71676;50.998;7.098;2024-03-02T01:27:15;3.20;;;1.30;;
76284;SDS011;71676;50.998;7.098;2024-03-02T01:29:42;2.97;;;1.50;;
76284;SDS011;71676;50.998;7.098;2024-03-02T01:32:10;3.30;;;1.30;;
76284;SDS011;71676;50.998;7.098;2024-03-02T01:34:36;4.22;;;1.40;;
76284;SDS011;71676;50.998;7.098;2024-03-02T01:37:03;3.72;;;1.52;;
76284;SDS011;71676;50.998;7.098;2024-03-02T01:39:30;4.30;;;1.50;;
76284;SDS011;71676;50.998;7.098;2024-03-02T01:41:56;5.30;;;1.77;;
76284;SDS011;71676;50.998;7.098;2024-03-02T01:44:23;5.03;;;1.60;;
76284;SDS011;71676;50.998;7.098;2024-03-02T01:46:49;2.35;;;1.05;;
76284;SDS011;71676;50.998;7.098;2024-03-02T01:49:18;5.35;;;1.70;;
76284;SDS011;71676;50.998;7.098;2024-03-02T01:51:44;6.15;;;1.80;;
76284;SDS011;71676;50.998;7.098;2024-03-02T01:54:11;4.45;;;1.60;;
76284;SDS011;71676;50.998;7.098;2024-03-02T01:56:38;4.07;;;1.63;;
76284;SDS011;71676;50.998;7.098;2024-03-02T01:59:06;3.92;;;1.48;;
76284;SDS011;71676;50.998;7.098;2024-03-02T02:01:32;3.65;;;1.30;;
76284;SDS011;71676;50.998;7.098;2024-03-02T02:03:59;3.08;;;1.45;;
76284;SDS011;71676;50.998;7.098;2024-03-02T02:06:27;1.52;;;0.98;;
76284;SDS011;71676;50.998;7.098;2024-03-02T02:08:54;2.45;;;1.30;;
76284;SDS011;71676;50.998;7.098;2024-03-02T02:11:20;2.20;;;1.15;;
76284;SDS011;71676;50.998;7.098;2024-03-02T02:13:47;2.63;;;1.30;;
76284;SDS011;71676;50.998;7.098;2024-03-02T02:16:14;3.33;;;1.20;;
76284;SDS011;71676;50.998;7.098;2024-03-02T02:18:40;3.65;;;1.40;;
76284;SDS011;71676;50.998;7.098;2024-03-02T02:21:07;4.93;;;1.55;;
76284;SDS011;71676;50.998;7.098;2024-03-02T02:23:35;5.13;;;1.73;;
76284;SDS011;71676;50.998;7.098;2024-03-02T02:26:02;4.28;;;1.38;;
76284;SDS011;71676;50.998;7.098;2024-03-02T02:28:29;2.58;;;1.20;;
76284;SDS011;71676;50.998;7.098;2024-03-02T02:30:55;4.20;;;1.23;;
76284;SDS011;71676;50.998;7.098;2024-03-02T02:33:22;3.53;;;1.30;;
76284;SDS011;71676;50.998;7.098;2024-03-02T02:35:49;4.88;;;1.55;;
76284;SDS011;71676;50.998;7.098;2024-03-02T02:38:16;2.40;;;1.30;;
76284;SDS011;71676;50.998;7.098;2024-03-02T02:40:46;3.47;;;1.50;;
76284;SDS011;71676;50.998;7.098;2024-03-02T02:43:13;2.67;;;1.30;;
76284;SDS011;71676;50.998;7.098;2024-03-02T02:45:39;2.50;;;1.27;;
76284;SDS011;71676;50.998;7.098;2024-03-02T02:48:06;3.17;;;1.30;;
76284;SDS011;71676;50.998;7.098;2024-03-02T02:50:33;2.70;;;1.33;;
76284;SDS011;71676;50.998;7.098;2024-03-02T02:53:00;3.78;;;1.40;;
76284;SDS011;71676;50.998;7.098;2024-03-02T02:55:26;3.72;;;1.40;;
76284;SDS011;71676;50.998;7.098;2024-03-02T02:57:54;3.42;;;1.30;;
76284;SDS011;71676;50.998;7.098;2024-03-02T03:00:21;2.30;;;1.23;;
76284;SDS011;71676;50.998;7.098;2024-03-02T03:02:48;3.05;;;1.33;;
76284;SDS011;71676;50.998;7.098;2024-03-02T03:05:16;3.95;;;1.15;;
76284;SDS011;71676;50.998;7.098;2024-03-02T03:07:43;3.35;;;1.35;;
76284;SDS011;71676;50.998;7.098;2024-03-02T03:10:10;2.10;;;1.30;;
76284;SDS011;71676;50.998;7.098;2024-03-02T03:12:36;2.25;;;1.20;;
76284;SDS011;71676;50.998;7.098;2024-03-02T03:15:05;3.08;;;1.52;;
76284;SDS011;71676;50.998;7.098;2024-03-02T03:17:33;3.38;;;1.30;;
76284;SDS011;71676;50.998;7.098;2024-03-02T03:20:00;4.22;;;1.70;;
76284;SDS011;71676;50.998;7.098;2024-03-02T03:22:29;4.18;;;1.65;;
76284;SDS011;71676;50.998;7.098;2024-03-02T03:24:55;3.08;;;1.30;;
76284;SDS011;71676;50.998;7.098;2024-03-02T03:27:22;3.58;;;1.40;;
76284;SDS011;71676;50.998;7.098;2024-03-02T03:29:48;3.42;;;1.88;;
76284;SDS011;71676;50.998;7.098;2024-03-02T03:32:16;2.88;;;1.00;;
76284;SDS011;71676;50.998;7.098;2024-03-02T03:34:43;3.45;;;1.52;;
76284;SDS011;71676;50.998;7.098;2024-03-02T03:37:10;2.22;;;1.05;;
76284;SDS011;71676;50.998;7.098;2024-03-02T03:39:36;3.25;;;1.02;;
76284;SDS011;71676;50.998;7.098;2024-03-02T03:42:03;3.08;;;1.20;;
76284;SDS011;71676;50.998;7.098;2024-03-02T03:44:31;3.80;;;1.30;;
76284;SDS011;71676;50.998;7.098;2024-03-02T03:46:58;2.22;;;1.27;;
76284;SDS011;71676;50.998;7.098;2024-03-02T03:49:27;4.38;;;1.50;;
76284;SDS011;71676;50.998;7.098;2024-03-02T03:51:54;2.50;;;1.02;;
76284;SDS011;71676;50.998;7.098;2024-03-02T03:54:20;3.40;;;1.20;;
76284;SDS011;71676;50.998;7.098;2024-03-02T03:56:47;2.92;;;1.15;;
76284;SDS011;71676;50.998;7.098;2024-03-02T03:59:14;4.63;;;1.35;;
76284;SDS011;71676;50.998;7.098;2024-03-02T04:01:40;2.10;;;1.20;;
76284;SDS011;71676;50.998;7.098;2024-03-02T04:04:07;2.53;;;1.40;;
76284;SDS011;71676;50.998;7.098;2024-03-02T04:06:35;2.75;;;1.02;;
76284;SDS011;71676;50.998;7.098;2024-03-02T04:09:01;3.55;;;1.30;;
76284;SDS011;71676;50.998;7.098;2024-03-02T04:11:29;3.10;;;1.08;;
76284;SDS011;71676;50.998;7.098;2024-03-02T04:13:55;2.30;;;1.25;;
76284;SDS011;71676;50.998;7.098;2024-03-02T04:16:22;2.45;;;1.30;;
76284;SDS011;71676;50.998;7.098;2024-03-02T04:18:49;3.20;;;1.40;;
76284;SDS011;71676;50.998;7.098;2024-03-02T04:21:15;2.80;;;1.17;;
76284;SDS011;71676;50.998;7.098;2024-03-02T04:23:43;2.85;;;1.30;;
76284;SDS011;71676;50.998;7.098;2024-03-02T04:26:10;4.55;;;1.55;;
76284;SDS011;71676;50.998;7.098;2024-03-02T04:28:36;2.45;;;1.25;;
76284;SDS011;71676;50.998;7.098;2024-03-02T04:31:03;7.00;;;1.55;;
76284;SDS011;71676;50.998;7.098;2024-03-02T04:33:30;3.45;;;1.45;;
76284;SDS011;71676;50.998;7.098;2024-03-02T04:35:56;3.35;;;1.52;;
76284;SDS011;71676;50.998;7.098;2024-03-02T04:38:23;3.40;;;1.38;;
76284;SDS011;71676;50.998;7.098;2024-03-02T04:40:51;3.85;;;1.30;;
76284;SDS011;71676;50.998;7.098;2024-03-02T04:43:18;3.95;;;1.70;;
76284;SDS011;71676;50.998;7.098;2024-03-02T04:45:44;3.47;;;1.63;;
76284;SDS011;71676;50.998;7.098;2024-03-02T04:48:11;3.35;;;1.63;;
76284;SDS011;71676;50.998;7.098;2024-03-02T04:50:38;4.40;;;1.90;;
76284;SDS011;71676;50.998;7.098;2024-03-02T04:53:04;4.30;;;1.42;;
76284;SDS011;71676;50.998;7.098;2024-03-02T04:55:31;3.97;;;1.40;;
76284;SDS011;71676;50.998;7.098;2024-03-02T04:58:16;4.35;;;1.60;;
76284;SDS011;71676;50.998;7.098;2024-03-02T05:00:43;4.75;;;1.88;;
76284;SDS011;71676;50.998;7.098;2024-03-02T05:03:11;4.35;;;1.85;;
76284;SDS011;71676;50.998;7.098;2024-03-02T05:05:38;4.10;;;1.63;;
76284;SDS011;71676;50.998;7.098;2024-03-02T05:08:05;4.05;;;1.55;;
76284;SDS011;71676;50.998;7.098;2024-03-02T05:10:31;4.00;;;1.63;;
76284;SDS011;71676;50.998;7.098;2024-03-02T05:12:58;4.68;;;1.73;;
76284;SDS011;71676;50.998;7.098;2024-03-02T05:15:26;4.30;;;1.85;;
76284;SDS011;71676;50.998;7.098;2024-03-02T05:17:52;3.08;;;1.48;;
76284;SDS011;71676;50.998;7.098;2024-03-02T05:20:19;4.97;;;1.95;;
76284;SDS011;71676;50.998;7.098;2024-03-02T05:22:45;4.40;;;1.75;;
76284;SDS011;71676;50.998;7.098;2024-03-02T05:25:12;3.60;;;1.58;;
76284;SDS011;71676;50.998;7.098;2024-03-02T05:27:39;4.05;;;1.73;;
76284;SDS011;71676;50.998;7.098;2024-03-02T05:30:06;3.70;;;1.63;;
76284;SDS011;71676;50.998;7.098;2024-03-02T05:32:35;3.65;;;1.85;;
76284;SDS011;71676;50.998;7.098;2024-03-02T05:35:02;4.40;;;1.65;;
76284;SDS011;71676;50.998;7.098;2024-03-02T05:37:31;4.10;;;1.90;;
76284;SDS011;71676;50.998;7.098;2024-03-02T05:39:57;3.83;;;1.70;;
76284;SDS011;71676;50.998;7.098;2024-03-02T05:42:24;5.13;;;2.00;;
76284;SDS011;71676;50.998;7.098;2024-03-02T05:44:52;5.47;;;1.92;;
76284;SDS011;71676;50.998;7.098;2024-03-02T05:47:18;4.63;;;1.90;;
76284;SDS011;71676;50.998;7.098;2024-03-02T05:49:46;3.92;;;1.95;;
76284;SDS011;71676;50.998;7.098;2024-03-02T05:52:13;4.43;;;1.98;;
76284;SDS011;71676;50.998;7.098;2024-03-02T05:54:39;6.63;;;2.08;;
76284;SDS011;71676;50.998;7.098;2024-03-02T05:57:06;4.78;;;1.98;;
76284;SDS011;71676;50.998;7.098;2024-03-02T05:59:56;4.22;;;1.75;;
76284;SDS011;71676;50.998;7.098;2024-03-02T06:02:23;5.85;;;1.95;;
76284;SDS011;71676;50.998;7.098;2024-03-02T06:04:52;5.10;;;1.88;;
76284;SDS011;71676;50.998;7.098;2024-03-02T06:07:20;3.95;;;1.55;;
76284;SDS011;71676;50.998;7.098;2024-03-02T06:09:46;5.07;;;2.00;;
76284;SDS011;71676;50.998;7.098;2024-03-02T06:12:15;4.75;;;2.00;;
76284;SDS011;71676;50.998;7.098;2024-03-02T06:14:43;6.97;;;2.40;;
76284;SDS011;71676;50.998;7.098;2024-03-02T06:17:09;4.90;;;2.05;;
76284;SDS011;71676;50.998;7.098;2024-03-02T06:19:36;6.00;;;2.05;;
76284;SDS011;71676;50.998;7.098;2024-03-02T06:22:04;5.70;;;2.15;;
76284;SDS011;71676;50.998;7.098;2024-03-02T06:24:31;4.90;;;2.10;;
76284;SDS011;71676;50.998;7.098;2024-03-02T06:26:57;6.03;;;2.30;;
76284;SDS011;71676;50.998;7.098;2024-03-02T06:29:24;5.22;;;2.42;;
76284;SDS011;71676;50.998;7.098;2024-03-02T06:31:51;6.20;;;2.45;;
76284;SDS011;71676;50.998;7.098;2024-03-02T06:34:17;4.72;;;1.83;;
76284;SDS011;71676;50.998;7.098;2024-03-02T06:36:44;7.25;;;2.30;;
76284;SDS011;71676;50.998;7.098;2024-03-02T06:39:12;5.80;;;2.03;;
76284;SDS011;71676;50.998;7.098;2024-03-02T06:41:38;5.68;;;2.20;;
76284;SDS011;71676;50.998;7.098;2024-03-02T06:44:05;5.18;;;2.03;;
76284;SDS011;71676;50.998;7.098;2024-03-02T06:46:31;5.72;;;2.20;;
76284;SDS011;71676;50.998;7.098;2024-03-02T06:48:58;5.88;;;1.77;;
76284;SDS011;71676;50.998;7.098;2024-03-02T06:51:27;5.18;;;2.17;;
76284;SDS011;71676;50.998;7.098;2024-03-02T06:53:54;7.25;;;2.45;;
76284;SDS011;71676;50.998;7.098;2024-03-02T06:56:22;5.63;;;1.88;;
76284;SDS011;71676;50.998;7.098;2024-03-02T06:58:49;4.68;;;1.95;;
76284;SDS011;71676;50.998;7.098;2024-03-02T07:01:15;5.05;;;2.20;;
76284;SDS011;71676;50.998;7.098;2024-03-02T07:03:42;5.15;;;2.20;;
76284;SDS011;71676;50.998;7.098;2024-03-02T07:06:09;4.80;;;2.03;;
76284;SDS011;71676;50.998;7.098;2024-03-02T07:08:35;4.07;;;1.60;;
76284;SDS011;71676;50.998;7.098;2024-03-02T07:11:02;5.03;;;2.10;;
76284;SDS011;71676;50.998;7.098;2024-03-02T07:13:30;3.90;;;1.80;;
76284;SDS011;71676;50.998;7.098;2024-03-02T07:15:57;5.07;;;1.70;;
76284;SDS011;71676;50.998;7.098;2024-03-02T07:18:52;6.13;;;2.78;;
76284;SDS011;71676;50.998;7.098;2024-03-02T07:21:20;8.05;;;3.13;;
76284;SDS011;71676;50.998;7.098;2024-03-02T07:23:47;4.78;;;2.10;;
76284;SDS011;71676;50.998;7.098;2024-03-02T07:26:14;5.57;;;2.08;;
76284;SDS011;71676;50.998;7.098;2024-03-02T07:28:41;5.00;;;2.10;;
76284;SDS011;71676;50.998;7.098;2024-03-02T07:31:09;5.47;;;2.60;;
76284;SDS011;71676;50.998;7.098;2024-03-02T07:33:36;6.13;;;2.42;;
76284;SDS011;71676;50.998;7.098;2024-03-02T07:36:04;4.57;;;2.22;;
76284;SDS011;71676;50.998;7.098;2024-03-02T07:38:31;5.72;;;2.38;;
76284;SDS011;71676;50.998;7.098;2024-03-02T07:40:59;4.47;;;2.05;;
76284;SDS011;71676;50.998;7.098;2024-03-02T07:43:26;5.10;;;2.03;;
76284;SDS011;71676;50.998;7.098;2024-03-02T07:45:53;6.13;;;2.33;;
76284;SDS011;71676;50.998;7.098;2024-03-02T07:48:20;5.07;;;2.05;;
76284;SDS011;71676;50.998;7.098;2024-03-02T07:50:47;4.88;;;2.28;;
76284;SDS011;71676;50.998;7.098;2024-03-02T07:53:15;3.35;;;1.63;;
76284;SDS011;71676;50.998;7.098;2024-03-02T07:55:41;5.57;;;2.00;;
76284;SDS011;71676;50.998;7.098;2024-03-02T07:58:08;4.65;;;1.92;;
76284;SDS011;71676;50.998;7.098;2024-03-02T08:00:36;4.97;;;2.30;;
76284;SDS011;71676;50.998;7.098;2024-03-02T08:03:05;5.38;;;2.47;;
76284;SDS011;71676;50.998;7.098;2024-03-02T08:05:31;4.68;;;2.00;;
76284;SDS011;71676;50.998;7.098;2024-03-02T08:07:58;4.57;;;2.25;;
76284;SDS011;71676;50.998;7.098;2024-03-02T08:10:26;4.45;;;1.88;;
76284;SDS011;71676;50.998;7.098;2024-03-02T08:12:53;6.53;;;2.40;;
76284;SDS011;71676;50.998;7.098;2024-03-02T08:15:19;4.25;;;1.92;;
76284;SDS011;71676;50.998;7.098;2024-03-02T08:17:46;5.63;;;2.22;;
76284;SDS011;71676;50.998;7.098;2024-03-02T08:20:14;6.32;;;2.20;;
76284;SDS011;71676;50.998;7.098;2024-03-02T08:22:41;4.90;;;1.77;;
76284;SDS011;71676;50.998;7.098;2024-03-02T08:25:08;5.10;;;1.92;;
76284;SDS011;71676;50.998;7.098;2024-03-02T08:27:37;4.00;;;1.70;;
76284;SDS011;71676;50.998;7.098;2024-03-02T08:30:05;6.15;;;2.13;;
76284;SDS011;71676;50.998;7.098;2024-03-02T08:32:33;4.88;;;1.83;;
76284;SDS011;71676;50.998;7.098;2024-03-02T08:35:00;3.70;;;1.38;;
76284;SDS011;71676;50.998;7.098;2024-03-02T08:37:26;4.15;;;1.80;;
76284;SDS011;71676;50.998;7.098;2024-03-02T08:39:53;4.20;;;1.50;;
76284;SDS011;71676;50.998;7.098;2024-03-02T08:42:20;3.70;;;1.42;;
76284;SDS011;71676;50.998;7.098;2024-03-02T08:44:49;5.30;;;1.60;;
76284;SDS011;71676;50.998;7.098;2024-03-02T08:47:16;3.88;;;1.70;;
76284;SDS011;71676;50.998;7.098;2024-03-02T08:49:42;4.72;;;1.70;;
76284;SDS011;71676;50.998;7.098;2024-03-02T08:52:09;5.13;;;1.90;;
76284;SDS011;71676;50.998;7.098;2024-03-02T08:54:36;6.05;;;2.08;;
76284;SDS011;71676;50.998;7.098;2024-03-02T08:57:03;3.25;;;1.30;;
76284;SDS011;71676;50.998;7.098;2024-03-02T08:59:30;3.90;;;1.70;;
76284;SDS011;71676;50.998;7.098;2024-03-02T09:01:58;5.22;;;1.58;;
76284;SDS011;71676;50.998;7.098;2024-03-02T09:04:24;4.60;;;1.73;;
76284;SDS011;71676;50.998;7.098;2024-03-02T09:06:51;3.13;;;1.75;;
76284;SDS011;71676;50.998;7.098;2024-03-02T09:09:18;3.78;;;1.70;;
76284;SDS011;71676;50.998;7.098;2024-03-02T09:11:45;4.15;;;1.60;;
76284;SDS011;71676;50.998;7.098;2024-03-02T09:14:12;4.43;;;1.45;;
76284;SDS011;71676;50.998;7.098;2024-03-02T09:16:40;4.57;;;1.80;;
76284;SDS011;71676;50.998;7.098;2024-03-02T09:19:08;3.08;;;1.52;;
76284;SDS011;71676;50.998;7.098;2024-03-02T09:21:34;4.10;;;1.52;;
76284;SDS011;71676;50.998;7.098;2024-03-02T09:24:01;3.53;;;1.60;;
76284;SDS011;71676;50.998;7.098;2024-03-02T09:26:28;2.45;;;1.30;;
76284;SDS011;71676;50.998;7.098;2024-03-02T09:28:55;2.90;;;1.52;;
76284;SDS011;71676;50.998;7.098;2024-03-02T09:31:22;4.18;;;1.40;;
76284;SDS011;71676;50.998;7.098;2024-03-02T09:33:48;2.78;;;1.30;;
76284;SDS011;71676;50.998;7.098;2024-03-02T09:36:19;3.28;;;1.60;;
76284;SDS011;71676;50.998;7.098;2024-03-02T09:38:47;2.88;;;1.52;;
76284;SDS011;71676;50.998;7.098;2024-03-02T09:41:14;3.72;;;1.65;;
76284;SDS011;71676;50.998;7.098;2024-03-02T09:43:41;3.28;;;1.40;;
76284;SDS011;71676;50.998;7.098;2024-03-02T09:46:08;2.67;;;1.17;;
76284;SDS011;71676;50.998;7.098;2024-03-02T09:48:35;3.90;;;1.50;;
76284;SDS011;71676;50.998;7.098;2024-03-02T09:51:03;3.97;;;1.40;;
76284;SDS011;71676;50.998;7.098;2024-03-02T09:53:32;2.80;;;1.40;;
76284;SDS011;71676;50.998;7.098;2024-03-02T09:56:00;3.03;;;1.45;;
76284;SDS011;71676;50.998;7.098;2024-03-02T09:58:27;3.15;;;1.50;;
76284;SDS011;71676;50.998;7.098;2024-03-02T10:00:53;4.80;;;1.42;;
76284;SDS011;71676;50.998;7.098;2024-03-02T10:03:20;3.92;;;1.40;;
76284;SDS011;71676;50.998;7.098;2024-03-02T10:05:49;3.90;;;1.60;;
76284;SDS011;71676;50.998;7.098;2024-03-02T10:08:16;3.88;;;1.48;;
76284;SDS011;71676;50.998;7.098;2024-03-02T10:10:45;3.35;;;1.60;;
76284;SDS011;71676;50.998;7.098;2024-03-02T10:13:12;2.22;;;1.33;;
76284;SDS011;71676;50.998;7.098;2024-03-02T10:15:40;3.50;;;1.40;;
76284;SDS011;71676;50.998;7.098;2024-03-02T10:18:08;3.88;;;1.63;;
76284;SDS011;71676;50.998;7.098;2024-03-02T10:20:37;2.38;;;1.38;;
76284;SDS011;71676;50.998;7.098;2024-03-02T10:23:09;2.50;;;1.42;;
76284;SDS011;71676;50.998;7.098;2024-03-02T10:25:37;3.95;;;1.65;;
76284;SDS011;71676;50.998;7.098;2024-03-02T10:28:05;3.15;;;1.50;;
76284;SDS011;71676;50.998;7.098;2024-03-02T10:30:32;3.05;;;1.50;;
76284;SDS011;71676;50.998;7.098;2024-03-02T10:33:00;3.60;;;1.58;;
76284;SDS011;71676;50.998;7.098;2024-03-02T10:35:27;4.30;;;1.50;;
76284;SDS011;71676;50.998;7.098;2024-03-02T10:37:54;3.30;;;1.42;;
76284;SDS011;71676;50.998;7.098;2024-03-02T10:40:21;4.70;;;1.63;;
76284;SDS011;71676;50.998;7.098;2024-03-02T10:42:49;4.82;;;1.45;;
76284;SDS011;71676;50.998;7.098;2024-03-02T10:45:19;2.58;;;1.60;;
76284;SDS011;71676;50.998;7.098;2024-03-02T10:47:46;3.75;;;1.60;;
76284;SDS011;71676;50.998;7.098;2024-03-02T10:50:13;4.63;;;2.13;;
76284;SDS011;71676;50.998;7.098;2024-03-02T10:52:40;4.55;;;1.67;;
76284;SDS011;71676;50.998;7.098;2024-03-02T10:55:08;2.95;;;1.67;;
76284;SDS011;71676;50.998;7.098;2024-03-02T10:57:40;4.10;;;1.63;;
76284;SDS011;71676;50.998;7.098;2024-03-02T11:00:10;4.07;;;1.90;;
76284;SDS011;71676;50.998;7.098;2024-03-02T11:02:46;3.95;;;1.65;;
76284;SDS011;71676;50.998;7.098;2024-03-02T11:05:27;2.63;;;1.38;;
76284;SDS011;71676;50.998;7.098;2024-03-02T11:07:57;4.03;;;1.45;;
76284;SDS011;71676;50.998;7.098;2024-03-02T11:10:26;2.72;;;1.38;;
76284;SDS011;71676;50.998;7.098;2024-03-02T11:12:56;2.67;;;1.42;;
76284;SDS011;71676;50.998;7.098;2024-03-02T11:15:28;3.40;;;1.33;;
76284;SDS011;71676;50.998;7.098;2024-03-02T11:17:57;3.10;;;1.40;;
76284;SDS011;71676;50.998;7.098;2024-03-02T11:20:24;2.42;;;1.50;;
76284;SDS011;71676;50.998;7.098;2024-03-02T11:22:51;4.05;;;1.85;;
76284;SDS011;71676;50.998;7.098;2024-03-02T11:25:22;3.47;;;1.40;;
76284;SDS011;71676;50.998;7.098;2024-03-02T11:27:59;3.33;;;1.63;;
76284;SDS011;71676;50.998;7.098;2024-03-02T11:33:18;2.42;;;0.95;;
76284;SDS011;71676;50.998;7.098;2024-03-02T11:35:49;3.22;;;1.60;;
76284;SDS011;71676;50.998;7.098;2024-03-02T11:38:16;3.10;;;1.30;;
76284;SDS011;71676;50.998;7.098;2024-03-02T11:40:44;4.60;;;1.45;;
76284;SDS011;71676;50.998;7.098;2024-03-02T11:43:11;2.60;;;1.05;;
76284;SDS011;71676;50.998;7.098;2024-03-02T11:45:37;3.40;;;1.30;;
76284;SDS011;71676;50.998;7.098;2024-03-02T11:48:05;1.48;;;0.93;;
76284;SDS011;71676;50.998;7.098;2024-03-02T11:50:34;1.23;;;0.90;;
76284;SDS011;71676;50.998;7.098;2024-03-02T11:53:02;3.35;;;1.00;;
76284;SDS011;71676;50.998;7.098;2024-03-02T11:55:33;3.92;;;1.20;;
76284;SDS011;71676;50.998;7.098;2024-03-02T11:58:01;2.00;;;1.02;;
76284;SDS011;71676;50.998;7.098;2024-03-02T12:00:29;2.25;;;1.20;;
76284;SDS011;71676;50.998;7.098;2024-03-02T12:02:59;1.42;;;0.95;;
76284;SDS011;71676;50.998;7.098;2024-03-02T12:05:27;3.70;;;1.35;;
76284;SDS011;71676;50.998;7.098;2024-03-02T12:07:56;2.85;;;1.30;;
76284;SDS011;71676;50.998;7.098;2024-03-02T12:10:23;4.47;;;1.30;;
76284;SDS011;71676;50.998;7.098;2024-03-02T12:12:57;4.00;;;1.30;;
76284;SDS011;71676;50.998;7.098;2024-03-02T12:15:25;2.05;;;1.20;;
76284;SDS011;71676;50.998;7.098;2024-03-02T12:17:53;2.17;;;1.30;;
76284;SDS011;71676;50.998;7.098;2024-03-02T12:20:20;2.42;;;1.10;;
76284;SDS011;71676;50.998;7.098;2024-03-02T12:22:48;3.33;;;1.40;;
76284;SDS011;71676;50.998;7.098;2024-03-02T12:25:18;2.28;;;1.20;;
76284;SDS011;71676;50.998;7.098;2024-03-02T12:27:46;2.95;;;1.15;;
76284;SDS011;71676;50.998;7.098;2024-03-02T12:30:14;2.35;;;1.30;;
76284;SDS011;71676;50.998;7.098;2024-03-02T12:32:41;2.92;;;1.30;;
76284;SDS011;71676;50.998;7.098;2024-03-02T12:35:07;3.92;;;1.50;;
76284;SDS011;71676;50.998;7.098;2024-03-02T12:37:42;2.28;;;1.20;;
76284;SDS011;71676;50.998;7.098;2024-03-02T12:40:10;2.35;;;1.05;;
76284;SDS011;71676;50.998;7.098;2024-03-02T12:42:39;3.67;;;1.30;;
76284;SDS011;71676;50.998;7.098;2024-03-02T12:45:07;2.38;;;1.23;;
76284;SDS011;71676;50.998;7.098;2024-03-02T12:47:34;3.10;;;1.40;;
76284;SDS011;71676;50.998;7.098;2024-03-02T12:50:00;2.00;;;1.20;;
76284;SDS011;71676;50.998;7.098;2024-03-02T12:52:27;3.00;;;0.98;;
76284;SDS011;71676;50.998;7.098;2024-03-02T12:54:54;2.30;;;1.20;;
76284;SDS011;71676;50.998;7.098;2024-03-02T12:57:25;1.75;;;1.05;;
76284;SDS011;71676;50.998;7.098;2024-03-02T12:59:57;2.67;;;1.10;;
76284;SDS011;71676;50.998;7.098;2024-03-02T13:02:27;1.38;;;0.90;;
76284;SDS011;71676;50.998;7.098;2024-03-02T13:04:54;0.80;;;0.80;;
76284;SDS011;71676;50.998;7.098;2024-03-02T13:07:23;1.63;;;0.93;;
76284;SDS011;71676;50.998;7.098;2024-03-02T13:09:50;1.55;;;1.00;;
76284;SDS011;71676;50.998;7.098;2024-03-02T13:12:17;2.05;;;1.00;;
76284;SDS011;71676;50.998;7.098;2024-03-02T13:14:47;3.00;;;1.10;;
76284;SDS011;71676;50.998;7.098;2024-03-02T13:17:16;2.75;;;1.17;;
76284;SDS011;71676;50.998;7.098;2024-03-02T13:19:50;2.63;;;1.00;;
76284;SDS011;71676;50.998;7.098;2024-03-02T13:22:18;2.17;;;1.15;;
76284;SDS011;71676;50.998;7.098;2024-03-02T13:24:45;4.10;;;1.90;;
76284;SDS011;71676;50.998;7.098;2024-03-02T13:27:11;1.95;;;1.02;;
76284;SDS011;71676;50.998;7.098;2024-03-02T13:29:38;2.35;;;1.00;;
76284;SDS011;71676;50.998;7.098;2024-03-02T13:32:05;1.77;;;1.10;;
76284;SDS011;71676;50.998;7.098;2024-03-02T13:34:34;2.85;;;1.00;;
76284;SDS011;71676;50.998;7.098;2024-03-02T13:37:01;1.60;;;1.00;;
76284;SDS011;71676;50.998;7.098;2024-03-02T13:39:27;1.67;;;0.88;;
76284;SDS011;71676;50.998;7.098;2024-03-02T13:41:56;2.20;;;1.10;;
76284;SDS011;71676;50.998;7.098;2024-03-02T13:44:29;2.40;;;1.00;;
76284;SDS011;71676;50.998;7.098;2024-03-02T13:46:55;2.88;;;0.93;;
76284;SDS011;71676;50.998;7.098;2024-03-02T13:49:23;1.92;;;1.00;;
76284;SDS011;71676;50.998;7.098;2024-03-02T13:51:55;1.42;;;0.90;;
76284;SDS011;71676;50.998;7.098;2024-03-02T13:54:21;3.33;;;1.20;;
76284;SDS011;71676;50.998;7.098;2024-03-02T13:56:48;2.40;;;1.02;;
76284;SDS011;71676;50.998;7.098;2024-03-02T13:59:15;2.22;;;1.10;;
76284;SDS011;71676;50.998;7.098;2024-03-02T14:01:41;1.77;;;1.13;;
76284;SDS011;71676;50.998;7.098;2024-03-02T14:04:08;1.40;;;1.10;;
76284;SDS011;71676;50.998;7.098;2024-03-02T14:06:35;2.58;;;1.13;;
76284;SDS011;71676;50.998;7.098;2024-03-02T14:09:04;2.78;;;1.20;;
76284;SDS011;71676;50.998;7.098;2024-03-02T14:11:30;3.20;;;1.00;;
76284;SDS011;71676;50.998;7.098;2024-03-02T14:13:57;1.55;;;1.05;;
76284;SDS011;71676;50.998;7.098;2024-03-02T14:16:23;1.85;;;1.20;;
76284;SDS011;71676;50.998;7.098;2024-03-02T14:18:50;2.22;;;1.00;;
76284;SDS011;71676;50.998;7.098;2024-03-02T14:21:17;2.78;;;1.10;;
76284;SDS011;71676;50.998;7.098;2024-03-02T14:23:43;4.53;;;1.10;;
76284;SDS011;71676;50.998;7.098;2024-03-02T14:26:11;3.03;;;1.10;;
76284;SDS011;71676;50.998;7.098;2024-03-02T14:28:38;1.88;;;1.13;;
76284;SDS011;71676;50.998;7.098;2024-03-02T14:31:05;1.48;;;0.93;;
76284;SDS011;71676;50.998;7.098;2024-03-02T14:33:31;3.72;;;1.02;;
76284;SDS011;71676;50.998;7.098;2024-03-02T14:35:59;1.48;;;1.00;;
76284;SDS011;71676;50.998;7.098;2024-03-02T14:38:26;2.72;;;1.10;;
76284;SDS011;71676;50.998;7.098;2024-03-02T14:40:52;3.83;;;1.20;;
76284;SDS011;71676;50.998;7.098;2024-03-02T14:43:20;2.90;;;1.30;;
76284;SDS011;71676;50.998;7.098;2024-03-02T14:45:47;3.67;;;1.20;;
76284;SDS011;71676;50.998;7.098;2024-03-02T14:48:14;2.15;;;0.90;;
76284;SDS011;71676;50.998;7.098;2024-03-02T14:50:41;2.28;;;0.90;;
76284;SDS011;71676;50.998;7.098;2024-03-02T14:53:08;1.60;;;0.82;;